Terminal Aerodrome Forecast
Issued by NWS Charleston, WV

Current Version | Previous Version | Graphics & Text | Print | Product List | Glossary On
Versions: 1 2 3 4 5 6 7 8 9 10 11 12 13 14 15 16 17 18 19 20 21
000
FTUS41 KRLX 011400 AAA
TAFEKN
TAF AMD
KEKN 011440Z 0115/0212 00000KT P6SM BKN060
     FM011600 00000KT 2SM -SN OVC015
     FM011800 VRB03KT 4SM -RA BR OVC015=

USA.gov is the U.S. government's official web portal to all federal, state and local government web resources and services.